sensor_id;sensor_type;location;lat;lon;timestamp;pressure;altitude;pressure_sealevel;temperature;humidity
66742;BME280;53654;54.152;19.432;2023-02-03T00:01:09;101907.31;;;1.41;71.87
66742;BME280;53654;54.152;19.432;2023-02-03T00:03:37;101905.62;;;1.41;71.64
66742;BME280;53654;54.152;19.432;2023-02-03T00:06:06;101913.81;;;1.44;71.83
66742;BME280;53654;54.152;19.432;2023-02-03T00:08:35;101921.78;;;1.45;71.75
66742;BME280;53654;54.152;19.432;2023-02-03T00:11:05;101927.77;;;1.48;72.01
66742;BME280;53654;54.152;19.432;2023-02-03T00:13:33;101929.80;;;1.51;71.74
66742;BME280;53654;54.152;19.432;2023-02-03T00:16:02;101932.89;;;1.54;71.46
66742;BME280;53654;54.152;19.432;2023-02-03T00:18:33;101931.35;;;1.55;71.15
66742;BME280;53654;54.152;19.432;2023-02-03T00:21:01;101933.63;;;1.55;71.10
66742;BME280;53654;54.152;19.432;2023-02-03T00:23:29;101929.67;;;1.55;71.15
66742;BME280;53654;54.152;19.432;2023-02-03T00:26:09;101929.91;;;1.57;70.87
66742;BME280;53654;54.152;19.432;2023-02-03T00:28:37;101929.69;;;1.56;70.76
66742;BME280;53654;54.152;19.432;2023-02-03T00:31:14;101926.17;;;1.54;70.57
66742;BME280;53654;54.152;19.432;2023-02-03T00:33:42;101923.44;;;1.51;70.24
66742;BME280;53654;54.152;19.432;2023-02-03T00:36:11;101921.80;;;1.45;69.73
66742;BME280;53654;54.152;19.432;2023-02-03T00:38:39;101921.67;;;1.39;69.53
66742;BME280;53654;54.152;19.432;2023-02-03T00:41:07;101920.89;;;1.37;69.65
66742;BME280;53654;54.152;19.432;2023-02-03T00:43:35;101919.55;;;1.35;69.78
66742;BME280;53654;54.152;19.432;2023-02-03T00:46:03;101918.30;;;1.30;69.68
66742;BME280;53654;54.152;19.432;2023-02-03T00:48:32;101917.56;;;1.25;69.78
66742;BME280;53654;54.152;19.432;2023-02-03T00:51:00;101918.40;;;1.21;69.77
66742;BME280;53654;54.152;19.432;2023-02-03T00:53:28;101916.91;;;1.15;69.69
66742;BME280;53654;54.152;19.432;2023-02-03T00:55:56;101914.99;;;1.11;70.17
66742;BME280;53654;54.152;19.432;2023-02-03T00:58:24;101912.83;;;1.09;70.86
66742;BME280;53654;54.152;19.432;2023-02-03T01:00:54;101912.59;;;1.08;71.17
66742;BME280;53654;54.152;19.432;2023-02-03T01:03:24;101910.38;;;1.05;71.33
66742;BME280;53654;54.152;19.432;2023-02-03T01:05:52;101909.80;;;1.03;71.93
66742;BME280;53654;54.152;19.432;2023-02-03T01:08:20;101905.55;;;1.01;71.60
66742;BME280;53654;54.152;19.432;2023-02-03T01:10:50;101902.02;;;0.99;71.74
66742;BME280;53654;54.152;19.432;2023-02-03T01:13:18;101900.17;;;0.96;71.69
66742;BME280;53654;54.152;19.432;2023-02-03T01:15:46;101894.04;;;0.93;71.42
66742;BME280;53654;54.152;19.432;2023-02-03T01:18:15;101883.64;;;0.92;71.85
66742;BME280;53654;54.152;19.432;2023-02-03T01:20:44;101871.88;;;0.90;72.19
66742;BME280;53654;54.152;19.432;2023-02-03T01:23:12;101875.76;;;0.88;72.00
66742;BME280;53654;54.152;19.432;2023-02-03T01:25:40;101873.09;;;0.87;72.06
66742;BME280;53654;54.152;19.432;2023-02-03T01:28:08;101868.71;;;0.85;71.82
66742;BME280;53654;54.152;19.432;2023-02-03T01:30:36;101863.48;;;0.83;72.16
66742;BME280;53654;54.152;19.432;2023-02-03T01:33:04;101858.09;;;0.82;72.04
66742;BME280;53654;54.152;19.432;2023-02-03T01:35:33;101847.85;;;0.80;72.30
66742;BME280;53654;54.152;19.432;2023-02-03T01:38:02;101843.62;;;0.78;72.07
66742;BME280;53654;54.152;19.432;2023-02-03T01:40:31;101838.80;;;0.78;72.28
66742;BME280;53654;54.152;19.432;2023-02-03T01:42:59;101839.65;;;0.77;72.63
66742;BME280;53654;54.152;19.432;2023-02-03T01:45:28;101839.20;;;0.75;72.52
66742;BME280;53654;54.152;19.432;2023-02-03T01:47:57;101845.22;;;0.72;72.00
66742;BME280;53654;54.152;19.432;2023-02-03T01:50:30;101842.82;;;0.69;71.79
66742;BME280;53654;54.152;19.432;2023-02-03T01:53:02;101842.23;;;0.64;71.74
66742;BME280;53654;54.152;19.432;2023-02-03T01:55:36;101842.92;;;0.60;71.82
66742;BME280;53654;54.152;19.432;2023-02-03T01:58:21;101837.77;;;0.56;71.78
66742;BME280;53654;54.152;19.432;2023-02-03T02:00:53;101838.38;;;0.52;71.91
66742;BME280;53654;54.152;19.432;2023-02-03T02:03:30;101836.37;;;0.49;72.11
66742;BME280;53654;54.152;19.432;2023-02-03T02:06:03;101834.01;;;0.47;72.25
66742;BME280;53654;54.152;19.432;2023-02-03T02:08:32;101830.61;;;0.44;72.31
66742;BME280;53654;54.152;19.432;2023-02-03T02:11:01;101827.27;;;0.43;72.46
66742;BME280;53654;54.152;19.432;2023-02-03T02:13:31;101829.70;;;0.43;72.53
66742;BME280;53654;54.152;19.432;2023-02-03T02:37:52;101798.56;;;0.14;73.52
66742;BME280;53654;54.152;19.432;2023-02-03T02:46:00;101775.69;;;0.09;73.90
66742;BME280;53654;54.152;19.432;2023-02-03T02:48:46;101769.09;;;0.08;74.29
66742;BME280;53654;54.152;19.432;2023-02-03T02:51:15;101765.56;;;0.06;74.37
66742;BME280;53654;54.152;19.432;2023-02-03T02:53:51;101763.36;;;0.07;74.40
66742;BME280;53654;54.152;19.432;2023-02-03T02:56:22;101768.16;;;0.06;74.79
66742;BME280;53654;54.152;19.432;2023-02-03T02:58:53;101776.02;;;0.06;74.80
66742;BME280;53654;54.152;19.432;2023-02-03T03:01:23;101778.09;;;0.06;74.85
66742;BME280;53654;54.152;19.432;2023-02-03T03:03:52;101776.55;;;0.06;74.69
66742;BME280;53654;54.152;19.432;2023-02-03T03:06:25;101774.23;;;0.05;74.57
66742;BME280;53654;54.152;19.432;2023-02-03T03:08:58;101774.12;;;0.02;74.68
66742;BME280;53654;54.152;19.432;2023-02-03T03:11:31;101772.83;;;0.00;74.64
66742;BME280;53654;54.152;19.432;2023-02-03T03:14:02;101766.47;;;-0.03;74.71
66742;BME280;53654;54.152;19.432;2023-02-03T03:16:34;101769.02;;;0.00;74.94
66742;BME280;53654;54.152;19.432;2023-02-03T03:19:08;101761.55;;;0.01;74.92
66742;BME280;53654;54.152;19.432;2023-02-03T03:21:48;101761.18;;;0.04;74.85
66742;BME280;53654;54.152;19.432;2023-02-03T03:24:23;101757.06;;;0.01;74.90
66742;BME280;53654;54.152;19.432;2023-02-03T03:26:56;101768.90;;;0.01;74.96
66742;BME280;53654;54.152;19.432;2023-02-03T03:29:35;101762.67;;;-0.00;75.07
66742;BME280;53654;54.152;19.432;2023-02-03T03:32:04;101761.57;;;0.02;75.26
66742;BME280;53654;54.152;19.432;2023-02-03T03:34:33;101757.83;;;0.02;75.26
66742;BME280;53654;54.152;19.432;2023-02-03T03:39:43;101748.33;;;-0.02;75.37
66742;BME280;53654;54.152;19.432;2023-02-03T03:42:26;101746.22;;;-0.03;75.49
66742;BME280;53654;54.152;19.432;2023-02-03T03:45:01;101745.77;;;-0.05;75.57
66742;BME280;53654;54.152;19.432;2023-02-03T03:50:22;101735.20;;;-0.10;75.57
66742;BME280;53654;54.152;19.432;2023-02-03T03:52:53;101732.02;;;-0.12;75.57
66742;BME280;53654;54.152;19.432;2023-02-03T03:55:23;101732.69;;;-0.13;75.73
66742;BME280;53654;54.152;19.432;2023-02-03T03:57:58;101733.50;;;-0.14;75.49
66742;BME280;53654;54.152;19.432;2023-02-03T04:00:30;101732.22;;;-0.15;75.73
66742;BME280;53654;54.152;19.432;2023-02-03T04:03:04;101730.17;;;-0.15;75.89
66742;BME280;53654;54.152;19.432;2023-02-03T04:05:34;101732.30;;;-0.13;75.89
66742;BME280;53654;54.152;19.432;2023-02-03T04:08:03;101729.14;;;-0.12;75.91
66742;BME280;53654;54.152;19.432;2023-02-03T04:10:34;101724.17;;;-0.11;75.80
66742;BME280;53654;54.152;19.432;2023-02-03T04:13:03;101713.79;;;-0.13;75.78
66742;BME280;53654;54.152;19.432;2023-02-03T04:15:32;101713.13;;;-0.13;75.91
66742;BME280;53654;54.152;19.432;2023-02-03T04:18:01;101708.13;;;-0.13;75.91
66742;BME280;53654;54.152;19.432;2023-02-03T04:20:30;101703.64;;;-0.14;75.73
66742;BME280;53654;54.152;19.432;2023-02-03T04:22:59;101699.00;;;-0.14;75.92
66742;BME280;53654;54.152;19.432;2023-02-03T04:25:27;101698.36;;;-0.13;75.95
66742;BME280;53654;54.152;19.432;2023-02-03T04:27:55;101698.17;;;-0.13;75.88
66742;BME280;53654;54.152;19.432;2023-02-03T04:30:23;101697.17;;;-0.13;76.03
66742;BME280;53654;54.152;19.432;2023-02-03T04:32:51;101696.69;;;-0.12;76.05
66742;BME280;53654;54.152;19.432;2023-02-03T04:35:20;101696.97;;;-0.10;76.14
66742;BME280;53654;54.152;19.432;2023-02-03T04:37:48;101694.58;;;-0.10;76.08
66742;BME280;53654;54.152;19.432;2023-02-03T04:40:16;101690.13;;;-0.10;76.01
66742;BME280;53654;54.152;19.432;2023-02-03T04:42:44;101686.31;;;-0.11;76.02
66742;BME280;53654;54.152;19.432;2023-02-03T04:45:12;101677.73;;;-0.11;76.16
66742;BME280;53654;54.152;19.432;2023-02-03T04:47:40;101675.83;;;-0.08;76.17
66742;BME280;53654;54.152;19.432;2023-02-03T04:50:09;101669.42;;;-0.09;76.03
66742;BME280;53654;54.152;19.432;2023-02-03T04:52:37;101666.04;;;-0.11;76.17
66742;BME280;53654;54.152;19.432;2023-02-03T04:55:06;101661.98;;;-0.14;76.04
66742;BME280;53654;54.152;19.432;2023-02-03T04:57:34;101663.77;;;-0.15;76.27
66742;BME280;53654;54.152;19.432;2023-02-03T05:00:02;101660.80;;;-0.16;76.31
66742;BME280;53654;54.152;19.432;2023-02-03T05:02:31;101659.33;;;-0.18;76.42
66742;BME280;53654;54.152;19.432;2023-02-03T05:04:59;101649.11;;;-0.17;76.59
66742;BME280;53654;54.152;19.432;2023-02-03T05:07:27;101644.85;;;-0.17;76.50
66742;BME280;53654;54.152;19.432;2023-02-03T05:09:55;101638.04;;;-0.19;76.43
66742;BME280;53654;54.152;19.432;2023-02-03T05:12:23;101637.96;;;-0.20;76.53
66742;BME280;53654;54.152;19.432;2023-02-03T05:14:51;101627.86;;;-0.20;76.61
66742;BME280;53654;54.152;19.432;2023-02-03T05:17:19;101621.17;;;-0.24;76.63
66742;BME280;53654;54.152;19.432;2023-02-03T05:19:47;101613.15;;;-0.26;76.87
66742;BME280;53654;54.152;19.432;2023-02-03T05:22:15;101609.68;;;-0.27;76.92
66742;BME280;53654;54.152;19.432;2023-02-03T05:24:43;101607.60;;;-0.31;76.90
66742;BME280;53654;54.152;19.432;2023-02-03T05:27:10;101604.02;;;-0.35;76.95
66742;BME280;53654;54.152;19.432;2023-02-03T05:29:38;101599.17;;;-0.39;77.46
66742;BME280;53654;54.152;19.432;2023-02-03T05:32:06;101588.95;;;-0.41;77.46
66742;BME280;53654;54.152;19.432;2023-02-03T05:34:35;101586.39;;;-0.45;77.65
66742;BME280;53654;54.152;19.432;2023-02-03T05:37:03;101579.64;;;-0.46;77.74
66742;BME280;53654;54.152;19.432;2023-02-03T05:39:31;101572.35;;;-0.48;77.94
66742;BME280;53654;54.152;19.432;2023-02-03T05:41:59;101572.11;;;-0.46;77.88
66742;BME280;53654;54.152;19.432;2023-02-03T05:44:29;101570.92;;;-0.42;78.02
66742;BME280;53654;54.152;19.432;2023-02-03T05:46:58;101567.39;;;-0.37;77.90
66742;BME280;53654;54.152;19.432;2023-02-03T05:49:26;101566.23;;;-0.36;77.67
66742;BME280;53654;54.152;19.432;2023-02-03T05:51:56;101565.23;;;-0.36;77.75
66742;BME280;53654;54.152;19.432;2023-02-03T05:54:24;101564.35;;;-0.33;77.76
66742;BME280;53654;54.152;19.432;2023-02-03T05:56:52;101557.63;;;-0.33;77.58
66742;BME280;53654;54.152;19.432;2023-02-03T05:59:20;101552.89;;;-0.32;77.69
66742;BME280;53654;54.152;19.432;2023-02-03T06:01:48;101544.35;;;-0.31;77.52
66742;BME280;53654;54.152;19.432;2023-02-03T06:04:16;101533.81;;;-0.29;77.47
66742;BME280;53654;54.152;19.432;2023-02-03T06:06:44;101526.91;;;-0.26;77.56
66742;BME280;53654;54.152;19.432;2023-02-03T06:09:14;101527.17;;;-0.21;77.62
66742;BME280;53654;54.152;19.432;2023-02-03T06:11:42;101524.58;;;-0.21;77.44
66742;BME280;53654;54.152;19.432;2023-02-03T06:14:10;101523.59;;;-0.24;77.24
66742;BME280;53654;54.152;19.432;2023-02-03T06:16:38;101522.91;;;-0.24;77.36
66742;BME280;53654;54.152;19.432;2023-02-03T06:19:06;101519.14;;;-0.27;77.46
66742;BME280;53654;54.152;19.432;2023-02-03T06:21:34;101516.09;;;-0.34;77.64
66742;BME280;53654;54.152;19.432;2023-02-03T06:24:02;101514.38;;;-0.34;77.75
66742;BME280;53654;54.152;19.432;2023-02-03T06:26:30;101507.35;;;-0.34;77.70
66742;BME280;53654;54.152;19.432;2023-02-03T06:28:58;101501.30;;;-0.35;77.85
66742;BME280;53654;54.152;19.432;2023-02-03T06:31:26;101496.93;;;-0.40;77.86
66742;BME280;53654;54.152;19.432;2023-02-03T06:33:55;101489.36;;;-0.41;78.05
66742;BME280;53654;54.152;19.432;2023-02-03T06:36:24;101488.30;;;-0.45;78.19
66742;BME280;53654;54.152;19.432;2023-02-03T06:38:52;101479.63;;;-0.44;78.11
66742;BME280;53654;54.152;19.432;2023-02-03T06:41:20;101475.19;;;-0.44;78.13
66742;BME280;53654;54.152;19.432;2023-02-03T06:43:48;101468.05;;;-0.46;78.13
66742;BME280;53654;54.152;19.432;2023-02-03T06:46:15;101466.04;;;-0.48;78.26
66742;BME280;53654;54.152;19.432;2023-02-03T06:48:43;101457.71;;;-0.51;78.28
66742;BME280;53654;54.152;19.432;2023-02-03T06:51:11;101456.89;;;-0.53;78.46
66742;BME280;53654;54.152;19.432;2023-02-03T06:53:39;101447.34;;;-0.56;78.79
66742;BME280;53654;54.152;19.432;2023-02-03T06:56:07;101445.98;;;-0.56;78.79
66742;BME280;53654;54.152;19.432;2023-02-03T06:58:35;101441.52;;;-0.52;78.80
66742;BME280;53654;54.152;19.432;2023-02-03T07:01:03;101435.63;;;-0.50;78.73
66742;BME280;53654;54.152;19.432;2023-02-03T07:03:31;101432.30;;;-0.48;78.81
66742;BME280;53654;54.152;19.432;2023-02-03T07:05:59;101426.05;;;-0.49;78.71
66742;BME280;53654;54.152;19.432;2023-02-03T07:08:27;101421.57;;;-0.50;78.82
66742;BME280;53654;54.152;19.432;2023-02-03T07:10:55;101421.04;;;-0.47;78.85
66742;BME280;53654;54.152;19.432;2023-02-03T07:13:23;101414.02;;;-0.46;78.83
66742;BME280;53654;54.152;19.432;2023-02-03T07:15:51;101409.37;;;-0.47;78.97
66742;BME280;53654;54.152;19.432;2023-02-03T07:18:19;101401.41;;;-0.49;79.02
66742;BME280;53654;54.152;19.432;2023-02-03T07:21:12;101395.95;;;-0.52;79.20
66742;BME280;53654;54.152;19.432;2023-02-03T07:23:41;101395.61;;;-0.52;79.48
66742;BME280;53654;54.152;19.432;2023-02-03T07:26:09;101395.32;;;-0.54;79.58
66742;BME280;53654;54.152;19.432;2023-02-03T07:28:37;101393.45;;;-0.50;79.44
66742;BME280;53654;54.152;19.432;2023-02-03T07:31:05;101396.48;;;-0.48;79.47
66742;BME280;53654;54.152;19.432;2023-02-03T07:33:37;101386.32;;;-0.45;79.40
66742;BME280;53654;54.152;19.432;2023-02-03T07:36:07;101382.77;;;-0.44;79.52
66742;BME280;53654;54.152;19.432;2023-02-03T07:38:35;101378.34;;;-0.40;79.60
66742;BME280;53654;54.152;19.432;2023-02-03T07:41:06;101372.58;;;-0.38;79.43
66742;BME280;53654;54.152;19.432;2023-02-03T07:43:34;101365.92;;;-0.38;79.41
66742;BME280;53654;54.152;19.432;2023-02-03T07:46:03;101358.35;;;-0.34;79.49
66742;BME280;53654;54.152;19.432;2023-02-03T07:48:31;101357.76;;;-0.32;79.73
66742;BME280;53654;54.152;19.432;2023-02-03T07:50:59;101349.40;;;-0.27;79.72
66742;BME280;53654;54.152;19.432;2023-02-03T07:53:27;101341.75;;;-0.22;79.46
66742;BME280;53654;54.152;19.432;2023-02-03T07:55:59;101331.48;;;-0.21;79.63
66742;BME280;53654;54.152;19.432;2023-02-03T07:58:28;101314.14;;;-0.18;79.48
66742;BME280;53654;54.152;19.432;2023-02-03T08:00:57;101314.08;;;-0.16;79.52
66742;BME280;53654;54.152;19.432;2023-02-03T08:03:25;101306.39;;;-0.11;79.48
66742;BME280;53654;54.152;19.432;2023-02-03T08:05:53;101301.44;;;-0.07;79.61
66742;BME280;53654;54.152;19.432;2023-02-03T08:08:21;101298.52;;;-0.03;79.52
66742;BME280;53654;54.152;19.432;2023-02-03T08:10:49;101293.55;;;0.01;79.55
66742;BME280;53654;54.152;19.432;2023-02-03T08:13:17;101287.42;;;0.02;79.72
66742;BME280;53654;54.152;19.432;2023-02-03T08:15:46;101278.78;;;0.04;79.77
66742;BME280;53654;54.152;19.432;2023-02-03T08:18:14;101267.16;;;0.09;79.89
66742;BME280;53654;54.152;19.432;2023-02-03T08:20:42;101263.30;;;0.15;79.90
66742;BME280;53654;54.152;19.432;2023-02-03T08:23:10;101261.14;;;0.21;79.68
66742;BME280;53654;54.152;19.432;2023-02-03T08:25:39;101256.16;;;0.21;79.68
66742;BME280;53654;54.152;19.432;2023-02-03T08:28:07;101254.84;;;0.22;79.43
66742;BME280;53654;54.152;19.432;2023-02-03T08:30:35;101251.20;;;0.21;79.55
66742;BME280;53654;54.152;19.432;2023-02-03T08:33:03;101243.44;;;0.24;79.51
66742;BME280;53654;54.152;19.432;2023-02-03T08:35:31;101243.99;;;0.30;79.43
66742;BME280;53654;54.152;19.432;2023-02-03T08:38:00;101237.48;;;0.35;79.43
66742;BME280;53654;54.152;19.432;2023-02-03T08:40:28;101235.24;;;0.39;79.19
66742;BME280;53654;54.152;19.432;2023-02-03T08:42:57;101227.54;;;0.39;79.02
66742;BME280;53654;54.152;19.432;2023-02-03T08:45:25;101220.94;;;0.41;79.15
66742;BME280;53654;54.152;19.432;2023-02-03T08:47:53;101216.85;;;0.42;79.15
66742;BME280;53654;54.152;19.432;2023-02-03T08:50:21;101208.69;;;0.44;79.05
66742;BME280;53654;54.152;19.432;2023-02-03T08:52:49;101202.51;;;0.44;78.96
66742;BME280;53654;54.152;19.432;2023-02-03T08:55:18;101195.21;;;0.42;78.94
66742;BME280;53654;54.152;19.432;2023-02-03T08:57:46;101188.78;;;0.36;78.93
66742;BME280;53654;54.152;19.432;2023-02-03T09:00:15;101176.86;;;0.38;78.87
66742;BME280;53654;54.152;19.432;2023-02-03T09:02:43;101168.77;;;0.37;78.91
66742;BME280;53654;54.152;19.432;2023-02-03T09:05:12;101165.02;;;0.38;78.61
66742;BME280;53654;54.152;19.432;2023-02-03T09:07:40;101157.90;;;0.36;78.64
66742;BME280;53654;54.152;19.432;2023-02-03T09:10:09;101154.20;;;0.42;78.44
66742;BME280;53654;54.152;19.432;2023-02-03T09:12:37;101152.92;;;0.45;78.14
66742;BME280;53654;54.152;19.432;2023-02-03T09:15:06;101148.13;;;0.54;78.38
66742;BME280;53654;54.152;19.432;2023-02-03T09:17:34;101143.61;;;0.57;78.16
66742;BME280;53654;54.152;19.432;2023-02-03T09:20:03;101135.94;;;0.58;77.94
66742;BME280;53654;54.152;19.432;2023-02-03T09:22:31;101128.89;;;0.67;77.70
66742;BME280;53654;54.152;19.432;2023-02-03T09:24:59;101127.02;;;0.67;77.69
66742;BME280;53654;54.152;19.432;2023-02-03T09:27:28;101127.11;;;0.70;77.51
66742;BME280;53654;54.152;19.432;2023-02-03T09:29:56;101116.23;;;0.69;77.48
66742;BME280;53654;54.152;19.432;2023-02-03T09:32:25;101111.08;;;0.64;77.77
66742;BME280;53654;54.152;19.432;2023-02-03T09:34:53;101103.57;;;0.65;77.75
66742;BME280;53654;54.152;19.432;2023-02-03T09:37:21;101092.26;;;0.61;77.65
66742;BME280;53654;54.152;19.432;2023-02-03T09:39:49;101085.33;;;0.69;77.57
66742;BME280;53654;54.152;19.432;2023-02-03T09:42:27;101077.95;;;0.64;77.54
66742;BME280;53654;54.152;19.432;2023-02-03T09:45:17;101073.31;;;0.59;77.86
66742;BME280;53654;54.152;19.432;2023-02-03T09:47:48;101062.93;;;0.62;78.11
66742;BME280;53654;54.152;19.432;2023-02-03T09:50:23;101059.17;;;0.67;78.03
66742;BME280;53654;54.152;19.432;2023-02-03T09:52:54;101053.28;;;0.70;77.62
66742;BME280;53654;54.152;19.432;2023-02-03T09:55:37;101045.87;;;0.79;77.74
66742;BME280;53654;54.152;19.432;2023-02-03T09:58:18;101038.02;;;0.75;77.59
66742;BME280;53654;54.152;19.432;2023-02-03T10:00:53;101030.37;;;0.73;77.58
66742;BME280;53654;54.152;19.432;2023-02-03T10:03:46;101026.90;;;0.68;77.68
66742;BME280;53654;54.152;19.432;2023-02-03T10:09:29;101010.15;;;0.60;78.31
66742;BME280;53654;54.152;19.432;2023-02-03T10:17:29;100977.36;;;0.60;78.52
66742;BME280;53654;54.152;19.432;2023-02-03T10:20:27;100962.80;;;0.66;78.38
66742;BME280;53654;54.152;19.432;2023-02-03T10:23:01;100959.02;;;0.60;78.55
66742;BME280;53654;54.152;19.432;2023-02-03T10:25:51;100951.69;;;0.62;78.83
66742;BME280;53654;54.152;19.432;2023-02-03T10:28:46;100941.73;;;0.67;78.80
66742;BME280;53654;54.152;19.432;2023-02-03T10:31:20;100930.93;;;0.73;78.57
66742;BME280;53654;54.152;19.432;2023-02-03T10:33:58;100928.86;;;0.77;78.49
66742;BME280;53654;54.152;19.432;2023-02-03T10:36:35;100920.44;;;0.72;78.70
66742;BME280;53654;54.152;19.432;2023-02-03T10:41:50;100902.48;;;0.74;78.61
66742;BME280;53654;54.152;19.432;2023-02-03T10:44:30;100900.98;;;0.80;78.47
66742;BME280;53654;54.152;19.432;2023-02-03T10:47:00;100893.85;;;0.78;78.57
66742;BME280;53654;54.152;19.432;2023-02-03T10:49:28;100885.45;;;0.78;78.41
66742;BME280;53654;54.152;19.432;2023-02-03T10:51:59;100886.51;;;0.84;78.54
66742;BME280;53654;54.152;19.432;2023-02-03T10:54:33;100880.91;;;0.86;78.34
66742;BME280;53654;54.152;19.432;2023-02-03T10:57:11;100875.11;;;0.88;78.38
66742;BME280;53654;54.152;19.432;2023-02-03T10:59:43;100867.00;;;0.86;78.66
66742;BME280;53654;54.152;19.432;2023-02-03T11:05:18;100853.50;;;0.89;79.04
66742;BME280;53654;54.152;19.432;2023-02-03T11:07:47;100846.63;;;0.83;79.49
66742;BME280;53654;54.152;19.432;2023-02-03T11:10:32;100838.48;;;0.81;79.72
66742;BME280;53654;54.152;19.432;2023-02-03T11:21:46;100808.77;;;0.71;81.37
66742;BME280;53654;54.152;19.432;2023-02-03T11:24:28;100804.17;;;0.66;81.63
66742;BME280;53654;54.152;19.432;2023-02-03T11:27:16;100792.98;;;0.60;82.76
66742;BME280;53654;54.152;19.432;2023-02-03T11:29:47;100785.60;;;0.66;82.54
66742;BME280;53654;54.152;19.432;2023-02-03T11:32:34;100769.01;;;0.62;82.48
66742;BME280;53654;54.152;19.432;2023-02-03T11:35:12;100764.30;;;0.54;83.06
66742;BME280;53654;54.152;19.432;2023-02-03T11:37:43;100751.16;;;0.56;82.96
66742;BME280;53654;54.152;19.432;2023-02-03T11:59:39;100703.42;;;0.40;85.70
66742;BME280;53654;54.152;19.432;2023-02-03T12:05:35;100694.45;;;0.38;86.21
66742;BME280;53654;54.152;19.432;2023-02-03T12:21:42;100655.74;;;0.35;87.75
66742;BME280;53654;54.152;19.432;2023-02-03T12:24:19;100649.14;;;0.38;87.67
66742;BME280;53654;54.152;19.432;2023-02-03T12:29:42;100641.41;;;0.44;87.39
66742;BME280;53654;54.152;19.432;2023-02-03T12:32:44;100634.42;;;0.51;87.24
66742;BME280;53654;54.152;19.432;2023-02-03T12:35:35;100629.61;;;0.45;86.94
66742;BME280;53654;54.152;19.432;2023-02-03T12:38:16;100621.70;;;0.44;86.93
66742;BME280;53654;54.152;19.432;2023-02-03T12:40:58;100618.95;;;0.44;87.27
66742;BME280;53654;54.152;19.432;2023-02-03T12:43:33;100612.17;;;0.53;86.84
66742;BME280;53654;54.152;19.432;2023-02-03T12:46:08;100613.00;;;0.52;86.61
66742;BME280;53654;54.152;19.432;2023-02-03T12:51:39;100605.11;;;0.58;86.73
66742;BME280;53654;54.152;19.432;2023-02-03T12:57:25;100606.15;;;0.52;85.51
66742;BME280;53654;54.152;19.432;2023-02-03T13:05:49;100593.70;;;0.61;85.09
66742;BME280;53654;54.152;19.432;2023-02-03T13:08:33;100589.08;;;0.61;84.84
66742;BME280;53654;54.152;19.432;2023-02-03T13:14:22;100594.66;;;0.59;85.11
66742;BME280;53654;54.152;19.432;2023-02-03T13:16:57;100597.03;;;0.63;84.94
66742;BME280;53654;54.152;19.432;2023-02-03T13:19:37;100590.34;;;0.70;85.23
66742;BME280;53654;54.152;19.432;2023-02-03T13:22:13;100587.52;;;0.73;84.71
66742;BME280;53654;54.152;19.432;2023-02-03T13:24:49;100580.38;;;0.82;84.22
66742;BME280;53654;54.152;19.432;2023-02-03T13:27:33;100568.48;;;0.86;83.94
66742;BME280;53654;54.152;19.432;2023-02-03T13:33:49;100565.52;;;0.78;83.88
66742;BME280;53654;54.152;19.432;2023-02-03T13:44:57;100556.30;;;0.74;86.19
66742;BME280;53654;54.152;19.432;2023-02-03T13:47:29;100552.13;;;0.72;86.93
66742;BME280;53654;54.152;19.432;2023-02-03T13:50:01;100546.88;;;0.75;86.66
66742;BME280;53654;54.152;19.432;2023-02-03T13:55:01;100539.11;;;0.73;86.65
66742;BME280;53654;54.152;19.432;2023-02-03T13:57:34;100530.80;;;0.77;86.52
66742;BME280;53654;54.152;19.432;2023-02-03T14:03:42;100523.09;;;0.65;86.15
66742;BME280;53654;54.152;19.432;2023-02-03T14:14:43;100508.84;;;0.47;86.38
66742;BME280;53654;54.152;19.432;2023-02-03T14:23:10;100498.52;;;0.40;86.70
66742;BME280;53654;54.152;19.432;2023-02-03T14:25:54;100501.73;;;0.45;86.74
66742;BME280;53654;54.152;19.432;2023-02-03T14:28:28;100495.96;;;0.47;86.58
66742;BME280;53654;54.152;19.432;2023-02-03T14:34:00;100494.47;;;0.42;86.86
66742;BME280;53654;54.152;19.432;2023-02-03T14:36:42;100491.08;;;0.38;87.29
66742;BME280;53654;54.152;19.432;2023-02-03T14:44:28;100488.19;;;0.32;87.57
66742;BME280;53654;54.152;19.432;2023-02-03T14:53:09;100502.72;;;0.24;88.10
66742;BME280;53654;54.152;19.432;2023-02-03T14:55:50;100505.05;;;0.22;87.92
66742;BME280;53654;54.152;19.432;2023-02-03T14:58:33;100504.29;;;0.25;87.50
66742;BME280;53654;54.152;19.432;2023-02-03T15:01:03;100506.38;;;0.26;87.72
66742;BME280;53654;54.152;19.432;2023-02-03T15:03:32;100516.70;;;0.27;87.42
66742;BME280;53654;54.152;19.432;2023-02-03T15:06:04;100516.64;;;0.31;87.47
66742;BME280;53654;54.152;19.432;2023-02-03T15:08:46;100531.71;;;0.30;87.11
66742;BME280;53654;54.152;19.432;2023-02-03T15:11:42;100520.70;;;0.30;87.04
66742;BME280;53654;54.152;19.432;2023-02-03T15:14:25;100521.30;;;0.26;87.00
66742;BME280;53654;54.152;19.432;2023-02-03T15:17:10;100526.09;;;0.26;87.13
66742;BME280;53654;54.152;19.432;2023-02-03T15:19:40;100524.64;;;0.23;86.88
66742;BME280;53654;54.152;19.432;2023-02-03T15:22:22;100528.44;;;0.24;87.02
66742;BME280;53654;54.152;19.432;2023-02-03T15:24:54;100527.17;;;0.27;86.67
66742;BME280;53654;54.152;19.432;2023-02-03T15:27:25;100526.14;;;0.28;86.48
66742;BME280;53654;54.152;19.432;2023-02-03T15:29:54;100531.38;;;0.31;86.52
66742;BME280;53654;54.152;19.432;2023-02-03T15:32:33;100537.09;;;0.33;86.40
66742;BME280;53654;54.152;19.432;2023-02-03T15:35:06;100542.23;;;0.32;86.60
66742;BME280;53654;54.152;19.432;2023-02-03T15:40:16;100553.39;;;0.33;85.81
66742;BME280;53654;54.152;19.432;2023-02-03T15:45:33;100551.04;;;0.28;85.32
66742;BME280;53654;54.152;19.432;2023-02-03T15:51:18;100561.30;;;0.22;85.12
66742;BME280;53654;54.152;19.432;2023-02-03T15:56:45;100575.19;;;0.21;85.00